createdAt,value
2019-04-30T00:01:55.871Z,77.00
2019-04-30T00:04:25.289Z,77.20
2019-04-30T00:06:55.646Z,77.00
2019-04-30T00:09:25.519Z,77.10
2019-04-30T00:11:57.932Z,77.00
2019-04-30T00:14:25.358Z,77.10
2019-04-30T00:16:55.138Z,77.10
2019-04-30T00:19:25.536Z,77.20
2019-04-30T00:21:59.174Z,77.30
2019-04-30T00:24:25.966Z,77.30
2019-04-30T00:26:55.120Z,77.20
2019-04-30T00:29:27.979Z,77.20
2019-04-30T00:31:57.750Z,77.20
2019-04-30T00:34:24.969Z,77.10
2019-04-30T00:36:55.834Z,77.00
2019-04-30T00:39:27.042Z,77.10
2019-04-30T00:41:56.577Z,77.20
2019-04-30T00:44:28.377Z,77.20
2019-04-30T00:46:55.877Z,77.30
2019-04-30T00:49:26.592Z,77.30
2019-04-30T00:51:58.153Z,77.30
2019-04-30T00:54:27.975Z,77.30
2019-04-30T00:57:01.500Z,77.20
2019-04-30T00:59:26.121Z,77.30
2019-04-30T01:02:08.375Z,77.60
2019-04-30T01:04:50.652Z,77.50
2019-04-30T01:07:19.436Z,77.40
2019-04-30T01:09:49.847Z,77.40
2019-04-30T01:12:25.460Z,77.40
2019-04-30T01:14:49.765Z,77.30
2019-04-30T01:17:18.866Z,77.40
2019-04-30T01:19:51.182Z,77.40
2019-04-30T01:22:21.517Z,77.50
2019-04-30T01:24:49.675Z,77.50
2019-04-30T01:27:18.847Z,77.30
2019-04-30T01:29:48.721Z,77.30
2019-04-30T01:32:20.830Z,77.50
2019-04-30T01:34:49.980Z,77.60
2019-04-30T01:37:20.280Z,77.50
2019-04-30T01:39:49.239Z,77.60
2019-04-30T01:42:18.469Z,77.50
2019-04-30T01:44:50.489Z,77.50
2019-04-30T01:47:21.524Z,77.30
2019-04-30T01:49:49.540Z,77.70
2019-04-30T01:52:19.371Z,77.60
2019-04-30T01:54:49.056Z,77.50
2019-04-30T01:57:31.447Z,77.70
2019-04-30T02:00:01.771Z,77.70
2019-04-30T02:02:32.088Z,77.50
2019-04-30T02:05:00.791Z,77.60
2019-04-30T02:07:29.470Z,77.60
2019-04-30T02:09:58.791Z,77.70
2019-04-30T02:12:29.552Z,77.70
2019-04-30T02:14:59.735Z,77.60
2019-04-30T02:17:29.262Z,77.50
2019-04-30T02:19:59.250Z,77.60
2019-04-30T02:22:30.909Z,77.80
2019-04-30T02:24:58.754Z,77.70
2019-04-30T02:27:29.423Z,77.70
2019-04-30T02:29:59.417Z,77.60
2019-04-30T02:32:30.428Z,77.60
2019-04-30T02:35:15.246Z,77.50
2019-04-30T02:38:02.014Z,77.60
2019-04-30T02:40:31.161Z,77.60
2019-04-30T02:43:01.834Z,77.50
2019-04-30T02:45:30.461Z,77.60
2019-04-30T02:47:59.437Z,77.70
2019-04-30T02:50:29.398Z,78.50
2019-04-30T02:53:00.216Z,77.70
2019-04-30T02:55:44.266Z,77.70
2019-04-30T02:58:12.956Z,77.50
2019-04-30T03:00:41.631Z,77.60
2019-04-30T03:03:10.450Z,77.60
2019-04-30T03:05:39.287Z,77.00
2019-04-30T03:08:09.625Z,77.60
2019-04-30T03:10:40.228Z,77.50
2019-04-30T03:13:09.853Z,77.40
2019-04-30T03:15:39.533Z,77.60
2019-04-30T03:18:15.830Z,77.60
2019-04-30T03:20:46.151Z,77.60
2019-04-30T03:23:14.836Z,77.40
2019-04-30T03:25:43.552Z,77.30
2019-04-30T03:28:12.223Z,77.40
2019-04-30T03:30:42.368Z,77.30
2019-04-30T03:33:12.664Z,77.10
2019-04-30T03:35:48.198Z,77.30
2019-04-30T03:38:12.103Z,77.30
2019-04-30T03:40:40.825Z,77.40
2019-04-30T03:43:10.324Z,77.40
2019-04-30T03:45:40.304Z,77.40
2019-04-30T03:48:10.166Z,77.30
2019-04-30T03:50:50.312Z,77.50
2019-04-30T03:53:10.412Z,77.60
2019-04-30T03:55:40.097Z,77.50
2019-04-30T03:58:09.342Z,77.60
2019-04-30T04:00:55.136Z,77.60
2019-04-30T04:03:23.827Z,77.50
2019-04-30T04:05:54.164Z,77.60
2019-04-30T04:08:29.370Z,77.70
2019-04-30T04:11:00.449Z,77.70
2019-04-30T04:13:30.029Z,77.70
2019-04-30T04:16:00.057Z,77.60
2019-04-30T04:18:30.200Z,77.70
2019-04-30T04:21:08.885Z,77.60
2019-04-30T04:23:32.690Z,77.90
2019-04-30T04:25:59.732Z,78.50
2019-04-30T04:28:29.982Z,77.70
2019-04-30T04:31:00.085Z,77.80
2019-04-30T04:33:29.619Z,77.80
2019-04-30T04:35:59.788Z,77.90
2019-04-30T04:38:30.405Z,77.90
2019-04-30T04:41:02.679Z,77.80
2019-04-30T04:43:30.087Z,78.00
2019-04-30T04:45:59.401Z,78.10
2019-04-30T04:48:29.807Z,79.00
2019-04-30T04:51:00.072Z,78.00
2019-04-30T04:53:30.469Z,77.80
2019-04-30T04:55:59.900Z,78.00
2019-04-30T04:58:30.336Z,78.20
2019-04-30T05:00:59.398Z,78.00
2019-04-30T05:03:29.974Z,78.00
2019-04-30T05:06:02.289Z,78.20
2019-04-30T05:08:29.046Z,78.10
2019-04-30T05:10:59.356Z,78.20
2019-04-30T05:13:29.044Z,78.20
2019-04-30T05:15:59.403Z,78.00
2019-04-30T05:18:29.109Z,77.90
2019-04-30T05:20:58.990Z,77.70
2019-04-30T05:23:29.880Z,78.60
2019-04-30T05:25:58.953Z,77.80
2019-04-30T05:28:29.925Z,78.20
2019-04-30T05:30:59.374Z,78.00
2019-04-30T05:33:28.694Z,77.80
2019-04-30T05:35:59.262Z,77.80
2019-04-30T05:38:28.707Z,78.00
2019-04-30T05:40:59.560Z,78.20
2019-04-30T05:43:28.971Z,77.90
2019-04-30T05:45:58.692Z,78.10
2019-04-30T05:48:28.615Z,78.20
2019-04-30T05:50:58.950Z,78.00
2019-04-30T05:53:28.665Z,78.00
2019-04-30T05:55:59.348Z,78.00
2019-04-30T05:58:29.964Z,78.10
2019-04-30T06:00:59.756Z,78.20
2019-04-30T06:03:32.936Z,78.20
2019-04-30T06:05:59.028Z,78.20
2019-04-30T06:08:29.366Z,78.20
2019-04-30T06:10:59.813Z,79.20
2019-04-30T06:13:48.743Z,78.20
2019-04-30T06:16:18.856Z,78.30
2019-04-30T06:18:48.513Z,78.20
2019-04-30T06:21:19.300Z,78.20
2019-04-30T06:23:49.213Z,78.20
2019-04-30T06:26:20.671Z,78.30
2019-04-30T06:28:49.605Z,78.00
2019-04-30T06:31:26.086Z,78.10
2019-04-30T06:33:48.810Z,77.90
2019-04-30T06:36:19.085Z,78.10
2019-04-30T06:38:48.947Z,77.80
2019-04-30T06:41:19.701Z,77.70
2019-04-30T06:43:48.872Z,78.00
2019-04-30T06:46:18.708Z,78.00
2019-04-30T06:48:50.544Z,77.80
2019-04-30T06:51:18.969Z,77.60
2019-04-30T06:53:49.527Z,77.80
2019-04-30T06:56:18.947Z,78.40
2019-04-30T06:58:49.334Z,78.20
2019-04-30T07:01:19.099Z,78.40
2019-04-30T07:03:48.738Z,78.20
2019-04-30T07:06:27.537Z,77.70
2019-04-30T07:08:55.960Z,78.10
2019-04-30T07:11:30.885Z,77.80
2019-04-30T07:13:59.992Z,78.10
2019-04-30T07:16:29.854Z,77.90
2019-04-30T07:18:58.767Z,78.10
2019-04-30T07:21:31.257Z,77.90
2019-04-30T07:23:59.563Z,77.90
2019-04-30T07:26:28.906Z,77.70
2019-04-30T07:29:01.990Z,77.90
2019-04-30T07:31:29.583Z,77.60
2019-04-30T07:33:59.471Z,78.10
2019-04-30T07:36:43.312Z,78.20
2019-04-30T07:38:59.905Z,77.80
2019-04-30T07:41:30.782Z,77.40
2019-04-30T07:43:59.615Z,77.50
2019-04-30T07:46:29.970Z,77.60
2019-04-30T07:48:59.991Z,77.50
2019-04-30T07:51:32.184Z,77.10
2019-04-30T07:53:59.411Z,77.40
2019-04-30T07:56:31.682Z,77.40
2019-04-30T07:59:00.799Z,77.70
2019-04-30T08:01:29.473Z,77.80
2019-04-30T08:04:03.192Z,78.20
2019-04-30T08:06:32.049Z,76.80
2019-04-30T08:09:01.388Z,77.40
2019-04-30T08:11:34.309Z,77.60
2019-04-30T08:14:01.303Z,77.50
2019-04-30T08:16:30.123Z,76.80
2019-04-30T08:18:59.252Z,76.40
2019-04-30T08:21:28.812Z,77.10
2019-04-30T08:23:59.315Z,77.70
2019-04-30T08:26:28.734Z,78.10
2019-04-30T08:28:59.616Z,78.10
2019-04-30T08:31:29.265Z,78.60
2019-04-30T08:33:59.137Z,78.60
2019-04-30T08:36:29.849Z,78.70
2019-04-30T08:38:59.697Z,79.00
2019-04-30T08:41:29.271Z,79.00
2019-04-30T08:43:59.809Z,79.00
2019-04-30T08:46:28.780Z,79.60
2019-04-30T08:48:58.798Z,79.70
2019-04-30T08:51:30.524Z,80.00
2019-04-30T08:53:58.681Z,79.30
2019-04-30T08:56:29.196Z,79.30
2019-04-30T08:58:59.428Z,80.20
2019-04-30T09:01:29.377Z,79.60
2019-04-30T09:03:59.768Z,79.20
2019-04-30T09:06:29.856Z,79.70
2019-04-30T09:08:59.382Z,79.40
2019-04-30T09:11:33.878Z,79.20
2019-04-30T09:13:58.580Z,79.90
2019-04-30T09:16:29.353Z,79.70
2019-04-30T09:18:59.539Z,79.30
2019-04-30T09:21:29.851Z,79.00
2019-04-30T09:23:59.452Z,79.20
2019-04-30T09:26:29.058Z,78.90
2019-04-30T09:28:59.351Z,79.60
2019-04-30T09:31:29.569Z,79.20
2019-04-30T09:34:00.830Z,79.30
2019-04-30T09:36:29.240Z,78.30
2019-04-30T09:38:58.804Z,78.70
2019-04-30T09:41:28.839Z,78.70
2019-04-30T09:43:59.623Z,77.80
2019-04-30T09:46:29.976Z,78.30
2019-04-30T09:48:59.726Z,78.90
2019-04-30T09:51:30.649Z,78.60
2019-04-30T09:54:02.307Z,78.10
2019-04-30T09:56:29.493Z,78.40
2019-04-30T09:58:59.238Z,78.30
2019-04-30T10:01:27.966Z,78.40
2019-04-30T10:03:56.951Z,78.30
2019-04-30T10:06:38.503Z,77.00
2019-04-30T10:08:56.406Z,78.20
2019-04-30T10:11:29.347Z,78.60
2019-04-30T10:13:57.981Z,77.20
2019-04-30T10:16:31.166Z,78.00
2019-04-30T10:19:01.439Z,77.60
2019-04-30T10:21:30.203Z,79.00
2019-04-30T10:24:12.346Z,78.40
2019-04-30T10:26:29.450Z,77.30
2019-04-30T10:28:58.002Z,77.70
2019-04-30T10:31:26.561Z,77.80
2019-04-30T10:33:55.226Z,78.30
2019-04-30T10:36:23.924Z,77.70
2019-04-30T10:38:52.598Z,77.90
2019-04-30T10:41:21.339Z,78.10
2019-04-30T10:43:50.051Z,78.20
2019-04-30T10:46:18.757Z,77.90
2019-04-30T10:48:47.476Z,78.30
2019-04-30T10:51:16.159Z,78.50
2019-04-30T10:53:44.847Z,78.30
2019-04-30T10:56:13.588Z,78.00
2019-04-30T10:58:42.273Z,77.50
2019-04-30T11:01:10.948Z,77.70
2019-04-30T11:03:39.655Z,78.00
2019-04-30T11:06:08.670Z,77.70
2019-04-30T11:08:37.416Z,78.00
2019-04-30T11:11:06.107Z,77.70
2019-04-30T11:13:34.796Z,78.70
2019-04-30T11:16:12.652Z,77.60
2019-04-30T11:18:34.028Z,77.80
2019-04-30T11:21:03.047Z,77.70
2019-04-30T11:23:31.919Z,77.60
2019-04-30T11:26:01.434Z,77.20
2019-04-30T11:28:30.587Z,77.60
2019-04-30T11:31:10.582Z,77.80
2019-04-30T11:33:39.510Z,77.30
2019-04-30T11:36:09.658Z,77.30
2019-04-30T11:38:38.867Z,77.40
2019-04-30T11:41:08.696Z,77.80
2019-04-30T11:43:39.055Z,77.70
2019-04-30T11:46:25.829Z,77.50
2019-04-30T11:48:54.855Z,77.30
2019-04-30T11:51:23.527Z,77.30
2019-04-30T11:53:52.244Z,77.40
2019-04-30T11:56:20.939Z,76.40
2019-04-30T11:58:49.624Z,77.10
2019-04-30T12:01:22.535Z,76.90
2019-04-30T12:03:51.215Z,76.90
2019-04-30T12:06:19.901Z,77.80
2019-04-30T12:08:56.055Z,77.40
2019-04-30T12:11:26.378Z,76.30
2019-04-30T12:13:55.063Z,76.50
2019-04-30T12:16:23.796Z,77.50
2019-04-30T12:18:52.476Z,77.30
2019-04-30T12:21:21.538Z,77.20
2019-04-30T12:23:50.234Z,77.40
2019-04-30T12:26:19.103Z,77.70
2019-04-30T12:28:47.842Z,77.40
2019-04-30T12:31:18.611Z,76.60
2019-04-30T12:33:46.911Z,77.30
2019-04-30T12:36:15.594Z,78.00
2019-04-30T12:38:44.313Z,77.70
2019-04-30T12:41:13.002Z,78.50
2019-04-30T12:43:41.675Z,79.00
2019-04-30T12:46:10.374Z,78.60
2019-04-30T12:48:59.462Z,78.50
2019-04-30T12:51:29.367Z,78.50
2019-04-30T12:54:02.414Z,79.10
2019-04-30T12:56:35.753Z,78.80
2019-04-30T12:59:04.496Z,78.00
2019-04-30T13:01:34.165Z,77.70
2019-04-30T13:04:03.130Z,78.10
2019-04-30T13:06:32.183Z,79.00
2019-04-30T13:09:01.882Z,79.70
2019-04-30T13:11:31.593Z,79.40
2019-04-30T13:14:01.152Z,79.70
2019-04-30T13:16:30.082Z,79.60
2019-04-30T13:18:59.405Z,78.50
2019-04-30T13:21:28.475Z,78.70
2019-04-30T13:23:57.357Z,79.30
2019-04-30T13:26:26.064Z,79.10
2019-04-30T13:28:56.390Z,78.80
2019-04-30T13:31:25.074Z,78.20
2019-04-30T13:33:58.258Z,77.20
2019-04-30T13:36:25.764Z,78.50
2019-04-30T13:38:56.090Z,78.50
2019-04-30T13:41:29.785Z,78.50
2019-04-30T13:43:59.379Z,78.70
2019-04-30T13:46:28.474Z,79.20
2019-04-30T13:48:57.329Z,79.70
2019-04-30T13:51:27.593Z,80.00
2019-04-30T13:53:56.626Z,79.40
2019-04-30T13:56:25.347Z,79.70
2019-04-30T13:58:54.027Z,79.00
2019-04-30T14:01:22.710Z,78.80
2019-04-30T14:03:59.153Z,78.80
2019-04-30T14:06:29.470Z,78.50
2019-04-30T14:09:02.802Z,78.70
2019-04-30T14:11:31.498Z,78.10
2019-04-30T14:14:00.261Z,77.50
2019-04-30T14:16:29.002Z,78.00
2019-04-30T14:18:58.605Z,78.60
2019-04-30T14:21:33.155Z,78.60
2019-04-30T14:23:59.403Z,78.40
2019-04-30T14:26:29.208Z,78.20
2019-04-30T14:28:58.843Z,78.30
2019-04-30T14:31:28.835Z,77.90
2019-04-30T14:33:59.240Z,78.20
2019-04-30T14:36:29.181Z,77.70
2019-04-30T14:39:13.037Z,79.30
2019-04-30T14:41:31.797Z,78.20
2019-04-30T14:44:07.044Z,78.00
2019-04-30T14:46:44.305Z,77.90
2019-04-30T14:49:22.191Z,78.10
2019-04-30T14:51:51.428Z,77.70
2019-04-30T14:54:21.817Z,77.90
2019-04-30T14:57:07.439Z,77.80
2019-04-30T14:59:39.001Z,77.90
2019-04-30T15:02:12.461Z,78.20
2019-04-30T15:04:41.226Z,77.80
2019-04-30T15:07:09.906Z,77.80
2019-04-30T15:09:38.638Z,77.90
2019-04-30T15:12:07.324Z,78.00
2019-04-30T15:14:36.014Z,78.10
2019-04-30T15:17:04.738Z,78.00
2019-04-30T15:19:33.423Z,78.10
2019-04-30T15:22:03.943Z,78.20
2019-04-30T15:24:36.689Z,78.30
2019-04-30T15:27:05.375Z,78.30
2019-04-30T15:29:34.051Z,78.50
2019-04-30T15:32:02.827Z,78.40
2019-04-30T15:34:31.639Z,78.50
2019-04-30T15:37:00.542Z,78.30
2019-04-30T15:39:30.985Z,78.40
2019-04-30T15:41:59.702Z,78.60
2019-04-30T15:44:28.387Z,78.30
2019-04-30T15:47:00.399Z,78.40
2019-04-30T15:49:27.724Z,78.20
2019-04-30T15:51:56.457Z,78.40
2019-04-30T15:54:25.317Z,78.20
2019-04-30T15:56:54.122Z,78.10
2019-04-30T15:59:28.967Z,78.40
2019-04-30T16:01:59.482Z,78.50
2019-04-30T16:04:29.862Z,78.20
2019-04-30T16:06:58.633Z,78.50
2019-04-30T16:09:29.127Z,78.10
2019-04-30T16:12:16.053Z,78.40
2019-04-30T16:14:44.985Z,78.20
2019-04-30T16:17:23.866Z,78.20
2019-04-30T16:19:52.670Z,78.20
2019-04-30T16:22:21.617Z,78.40
2019-04-30T16:24:50.367Z,78.50
2019-04-30T16:27:19.312Z,78.30
2019-04-30T16:29:49.840Z,78.20
2019-04-30T16:32:19.502Z,78.20
2019-04-30T16:34:49.895Z,78.30
2019-04-30T16:37:20.228Z,78.50
2019-04-30T16:39:49.145Z,78.30
2019-04-30T16:42:19.002Z,78.30
2019-04-30T16:44:47.885Z,77.80
2019-04-30T16:47:17.123Z,78.50
2019-04-30T16:49:46.032Z,78.60
2019-04-30T16:52:14.873Z,77.80
2019-04-30T16:54:43.562Z,77.80
2019-04-30T16:57:12.279Z,78.20
2019-04-30T16:59:42.308Z,77.90
2019-04-30T17:02:11.708Z,77.90
2019-04-30T17:04:42.450Z,78.00
2019-04-30T17:07:12.774Z,78.00
2019-04-30T17:09:43.094Z,78.40
2019-04-30T17:12:13.454Z,78.50
2019-04-30T17:14:43.628Z,78.50
2019-04-30T17:17:12.306Z,78.30
2019-04-30T17:19:41.022Z,78.40
2019-04-30T17:22:09.730Z,78.30
2019-04-30T17:24:39.352Z,78.50
2019-04-30T17:27:18.716Z,78.30
2019-04-30T17:29:38.462Z,78.50
2019-04-30T17:32:08.440Z,78.50
2019-04-30T17:34:38.946Z,78.50
2019-04-30T17:37:09.118Z,78.40
2019-04-30T17:39:40.912Z,78.50
2019-04-30T17:42:08.254Z,78.60
2019-04-30T17:44:36.936Z,79.30
2019-04-30T17:47:05.633Z,78.50
2019-04-30T17:49:34.345Z,79.00
2019-04-30T17:52:03.029Z,78.80
2019-04-30T17:54:31.709Z,78.80
2019-04-30T17:57:00.437Z,78.80
2019-04-30T17:59:29.129Z,78.80
2019-04-30T18:02:00.769Z,78.70
2019-04-30T18:04:29.729Z,78.90
2019-04-30T18:06:59.096Z,78.90
2019-04-30T18:09:29.244Z,79.00
2019-04-30T18:11:59.554Z,78.90
2019-04-30T18:14:28.620Z,78.90
2019-04-30T18:16:59.305Z,79.20
2019-04-30T18:19:45.714Z,79.10
2019-04-30T18:22:32.339Z,79.60
2019-04-30T18:25:02.694Z,79.60
2019-04-30T18:27:43.922Z,79.10
2019-04-30T18:30:06.541Z,78.80
2019-04-30T18:32:35.255Z,79.20
2019-04-30T18:35:05.873Z,79.50
2019-04-30T18:37:34.561Z,79.60
2019-04-30T18:40:03.282Z,79.50
2019-04-30T18:42:31.972Z,79.30
2019-04-30T18:45:00.653Z,80.00
2019-04-30T18:47:29.499Z,79.40
2019-04-30T18:49:59.434Z,80.00
2019-04-30T18:52:28.187Z,79.40
2019-04-30T18:54:56.913Z,79.50
2019-04-30T18:57:25.994Z,79.40
2019-04-30T18:59:54.686Z,79.50
2019-04-30T19:02:23.397Z,79.40
2019-04-30T19:04:52.085Z,79.30
2019-04-30T19:07:25.362Z,79.40
2019-04-30T19:10:01.530Z,79.40
2019-04-30T19:12:43.745Z,79.10
2019-04-30T19:15:14.105Z,79.30
2019-04-30T19:17:44.427Z,79.20
2019-04-30T19:20:20.771Z,78.90
2019-04-30T19:22:49.445Z,79.00
2019-04-30T19:25:19.104Z,79.20
2019-04-30T19:27:47.841Z,79.30
2019-04-30T19:30:19.243Z,79.40
2019-04-30T19:32:49.147Z,79.20
2019-04-30T19:35:18.750Z,79.30
2019-04-30T19:37:48.706Z,79.40
2019-04-30T19:40:19.038Z,79.40
2019-04-30T19:42:50.294Z,79.40
2019-04-30T19:45:18.240Z,79.50
2019-04-30T19:47:48.880Z,79.50
2019-04-30T19:50:19.130Z,79.80
2019-04-30T19:52:47.748Z,80.20
2019-04-30T19:55:16.422Z,80.10
2019-04-30T19:57:45.155Z,80.00
2019-04-30T20:00:13.835Z,79.80
2019-04-30T20:02:42.523Z,79.90
2019-04-30T20:05:11.227Z,79.70
2019-04-30T20:07:40.696Z,79.80
2019-04-30T20:10:09.634Z,79.70
2019-04-30T20:12:38.828Z,79.90
2019-04-30T20:15:17.165Z,79.90
2019-04-30T20:17:38.657Z,79.80
2019-04-30T20:20:09.012Z,79.80
2019-04-30T20:22:38.958Z,79.90
2019-04-30T20:25:09.143Z,79.70
2019-04-30T20:27:39.652Z,79.50
2019-04-30T20:30:09.527Z,79.80
2019-04-30T20:32:38.361Z,80.00
2019-04-30T20:35:07.226Z,79.80
2019-04-30T20:37:54.301Z,80.10
2019-04-30T20:40:24.571Z,79.80
2019-04-30T20:42:53.269Z,79.80
2019-04-30T20:45:22.296Z,80.10
2019-04-30T20:47:51.386Z,80.20
2019-04-30T20:50:20.067Z,80.00
2019-04-30T20:52:49.076Z,79.80
2019-04-30T20:55:17.791Z,79.90
2019-04-30T20:57:46.487Z,80.00
2019-04-30T21:00:15.560Z,79.90
2019-04-30T21:02:44.268Z,79.90
2019-04-30T21:05:12.952Z,79.90
2019-04-30T21:07:43.139Z,79.90
2019-04-30T21:10:11.861Z,80.10
2019-04-30T21:12:40.538Z,79.90
2019-04-30T21:15:09.753Z,79.90
2019-04-30T21:17:38.388Z,80.00
2019-04-30T21:20:09.486Z,79.90
2019-04-30T21:22:38.830Z,79.70
2019-04-30T21:25:09.024Z,79.70
2019-04-30T21:27:40.157Z,80.00
2019-04-30T21:30:10.491Z,80.00
2019-04-30T21:32:48.198Z,79.90
2019-04-30T21:35:24.983Z,79.90
2019-04-30T21:37:55.482Z,80.10
2019-04-30T21:40:24.170Z,80.00
2019-04-30T21:42:52.858Z,80.00
2019-04-30T21:45:21.576Z,80.20
2019-04-30T21:47:56.507Z,80.30
2019-04-30T21:50:20.594Z,80.10
2019-04-30T21:52:49.599Z,80.10
2019-04-30T21:55:19.800Z,80.10
2019-04-30T21:57:49.641Z,80.10
2019-04-30T22:00:22.759Z,80.00
2019-04-30T22:02:51.501Z,80.20
2019-04-30T22:05:20.177Z,80.00
2019-04-30T22:07:51.072Z,80.00
2019-04-30T22:10:19.224Z,81.10
2019-04-30T22:12:48.937Z,80.10
2019-04-30T22:15:17.704Z,80.10
2019-04-30T22:17:46.378Z,80.10
2019-04-30T22:20:15.071Z,80.70
2019-04-30T22:22:43.778Z,80.00
2019-04-30T22:25:12.458Z,80.10
2019-04-30T22:27:41.138Z,80.20
2019-04-30T22:30:09.863Z,80.40
2019-04-30T22:32:38.538Z,80.10
2019-04-30T22:35:27.356Z,80.30
2019-04-30T22:38:03.814Z,80.40
2019-04-30T22:40:32.523Z,80.00
2019-04-30T22:43:01.203Z,80.20
2019-04-30T22:45:31.533Z,80.90
2019-04-30T22:48:00.279Z,80.00
2019-04-30T22:50:28.959Z,80.10
2019-04-30T22:52:57.650Z,80.10
2019-04-30T22:55:26.362Z,80.30
2019-04-30T22:57:55.042Z,80.10
2019-04-30T23:00:28.362Z,80.20
2019-04-30T23:02:58.714Z,80.20
2019-04-30T23:05:27.773Z,80.00
2019-04-30T23:07:56.463Z,80.20
2019-04-30T23:10:25.186Z,80.20
2019-04-30T23:12:53.878Z,80.20
2019-04-30T23:15:22.626Z,80.10
2019-04-30T23:17:51.342Z,80.20
2019-04-30T23:20:20.090Z,80.40
2019-04-30T23:22:48.770Z,80.40
2019-04-30T23:25:17.496Z,80.60
2019-04-30T23:27:46.170Z,80.80
2019-04-30T23:30:14.859Z,80.80
2019-04-30T23:32:43.604Z,80.70
2019-04-30T23:35:12.298Z,80.40
2019-04-30T23:37:40.990Z,80.50
2019-04-30T23:40:28.204Z,80.60
2019-04-30T23:42:56.877Z,80.50
2019-04-30T23:45:25.571Z,80.30
2019-04-30T23:47:54.318Z,80.50
2019-04-30T23:50:22.989Z,80.30
2019-04-30T23:52:51.674Z,80.60
2019-04-30T23:55:20.399Z,80.30
2019-04-30T23:57:49.082Z,80.50
